createdAt,value
2022-08-10T00:01:30.540Z,5.72
2022-08-10T00:04:21.287Z,8.00
2022-08-10T00:07:00.296Z,9.68
2022-08-10T00:09:50.918Z,6.00
2022-08-10T00:12:53.920Z,8.15
2022-08-10T00:15:53.198Z,6.88
2022-08-10T00:18:31.427Z,11.73
2022-08-10T00:21:15.200Z,6.97
2022-08-10T00:23:52.497Z,7.57
2022-08-10T00:27:46.930Z,7.82
2022-08-10T00:29:27.718Z,10.65
2022-08-10T00:32:03.768Z,6.95
2022-08-10T00:34:39.519Z,6.25
2022-08-10T00:37:19.133Z,7.63
2022-08-10T00:39:54.755Z,8.02
2022-08-10T00:42:32.492Z,7.68
2022-08-10T00:45:08.317Z,8.02
2022-08-10T00:47:46.335Z,6.18
2022-08-10T00:50:22.914Z,7.03
2022-08-10T00:53:02.528Z,7.45
2022-08-10T00:57:12.439Z,7.32
2022-08-10T00:58:37.215Z,5.80
2022-08-10T01:02:08.407Z,4.60
2022-08-10T01:04:57.904Z,9.80
2022-08-10T01:07:27.867Z,9.80
2022-08-10T01:10:19.796Z,6.80
2022-08-10T01:13:02.341Z,6.43
2022-08-10T01:15:44.862Z,9.73
2022-08-10T01:18:28.992Z,6.03
2022-08-10T01:21:30.538Z,7.63
2022-08-10T01:24:29.075Z,4.57
2022-08-10T01:27:29.754Z,5.25
2022-08-10T01:30:13.690Z,7.88
2022-08-10T01:32:56.495Z,7.28
2022-08-10T01:35:40.219Z,7.65
2022-08-10T01:38:22.993Z,7.10
2022-08-10T01:41:02.663Z,6.53
2022-08-10T01:43:43.552Z,11.25
2022-08-10T01:46:24.525Z,8.40
2022-08-10T01:49:02.165Z,7.93
2022-08-10T01:51:41.734Z,6.68
2022-08-10T01:54:20.170Z,6.57
2022-08-10T01:56:59.055Z,6.32
2022-08-10T01:59:39.845Z,8.82
2022-08-10T02:02:20.840Z,8.35
2022-08-10T02:04:59.465Z,6.55
2022-08-10T02:07:39.002Z,5.35
2022-08-10T02:10:20.889Z,2.95
2022-08-10T02:12:59.606Z,3.83
2022-08-10T02:16:01.426Z,6.88
2022-08-10T02:18:41.990Z,4.18
2022-08-10T02:21:21.433Z,6.38
2022-08-10T02:23:59.616Z,3.42
2022-08-10T02:26:39.090Z,4.95
2022-08-10T02:29:20.173Z,4.32
2022-08-10T02:31:58.342Z,4.15
2022-08-10T02:34:39.166Z,7.32
2022-08-10T02:37:19.526Z,6.72
2022-08-10T02:39:55.871Z,5.30
2022-08-10T02:45:20.720Z,9.43
2022-08-10T02:45:48.533Z,8.77
2022-08-10T02:48:29.635Z,8.82
2022-08-10T02:51:15.478Z,7.80
2022-08-10T02:53:57.261Z,6.28
2022-08-10T02:56:36.051Z,7.13
2022-08-10T02:59:17.125Z,4.05
2022-08-10T03:01:53.863Z,6.53
2022-08-10T03:04:57.062Z,7.30
2022-08-10T03:07:43.007Z,5.72
2022-08-10T03:10:24.107Z,2.92
2022-08-10T03:13:04.912Z,1.98
2022-08-10T03:15:44.611Z,3.55
2022-08-10T03:18:21.474Z,4.00
2022-08-10T03:20:59.031Z,4.20
2022-08-10T03:23:38.051Z,2.28
2022-08-10T03:26:20.318Z,4.82
2022-08-10T03:28:58.506Z,3.38
2022-08-10T03:31:36.459Z,4.20
2022-08-10T03:34:22.071Z,6.05
2022-08-10T03:37:09.468Z,3.95
2022-08-10T03:39:50.057Z,3.03
2022-08-10T03:42:27.061Z,4.63
2022-08-10T03:45:08.238Z,5.07
2022-08-10T03:47:46.472Z,5.13
2022-08-10T03:50:45.508Z,6.68
2022-08-10T03:53:24.926Z,3.72
2022-08-10T03:56:28.712Z,3.72
2022-08-10T03:59:08.927Z,3.00
2022-08-10T04:02:45.242Z,1.25
2022-08-10T04:04:42.656Z,2.47
2022-08-10T04:07:20.167Z,1.88
2022-08-10T04:09:58.848Z,1.75
2022-08-10T04:12:37.373Z,1.17
2022-08-10T04:15:16.005Z,3.45
2022-08-10T04:18:04.339Z,3.67
2022-08-10T04:20:49.275Z,8.82
2022-08-10T04:23:29.381Z,5.18
2022-08-10T04:26:06.423Z,3.63
2022-08-10T04:28:45.774Z,5.07
2022-08-10T04:31:24.010Z,4.80
2022-08-10T04:34:08.906Z,4.75
2022-08-10T04:36:49.956Z,5.35
2022-08-10T04:39:28.083Z,4.85
2022-08-10T04:42:05.970Z,6.60
2022-08-10T04:44:47.169Z,3.53
2022-08-10T04:47:57.315Z,4.03
2022-08-10T04:50:21.145Z,4.15
2022-08-10T04:53:01.075Z,5.47
2022-08-10T04:55:39.173Z,3.72
2022-08-10T04:58:17.466Z,4.60
2022-08-10T05:00:56.032Z,7.10
2022-08-10T05:03:32.642Z,8.75
2022-08-10T05:06:09.734Z,6.97
2022-08-10T05:08:46.577Z,5.10
2022-08-10T05:11:23.840Z,5.80
2022-08-10T05:14:01.663Z,5.97
2022-08-10T05:16:39.922Z,6.18
2022-08-10T05:19:16.473Z,6.30
2022-08-10T05:22:04.491Z,6.80
2022-08-10T05:24:42.220Z,7.65
2022-08-10T05:27:18.927Z,7.15
2022-08-10T05:30:01.281Z,4.82
2022-08-10T05:32:56.658Z,9.05
2022-08-10T05:35:52.943Z,10.90
2022-08-10T05:38:35.286Z,2.47
2022-08-10T05:41:12.299Z,7.60
2022-08-10T05:43:49.280Z,7.40
2022-08-10T05:46:26.759Z,5.97
2022-08-10T05:49:05.748Z,6.78
2022-08-10T05:51:42.916Z,9.40
2022-08-10T05:54:23.634Z,11.02
2022-08-10T05:57:00.854Z,7.03
2022-08-10T06:00:30.734Z,8.90
2022-08-10T06:02:39.397Z,3.95
2022-08-10T06:05:19.688Z,8.70
2022-08-10T06:07:59.498Z,4.80
2022-08-10T06:10:37.370Z,6.30
2022-08-10T06:14:13.296Z,5.32
2022-08-10T06:16:48.597Z,5.93
2022-08-10T06:19:25.053Z,5.40
2022-08-10T06:22:04.585Z,8.80
2022-08-10T06:25:04.631Z,4.30
2022-08-10T06:27:39.274Z,5.97
2022-08-10T06:30:20.174Z,5.38
2022-08-10T06:33:00.609Z,7.93
2022-08-10T06:35:38.438Z,5.93
2022-08-10T06:38:18.826Z,5.60
2022-08-10T06:41:00.978Z,4.32
2022-08-10T06:43:38.975Z,6.65
2022-08-10T06:46:21.431Z,5.72
2022-08-10T06:49:00.551Z,6.55
2022-08-10T06:51:43.447Z,5.50
2022-08-10T06:54:28.172Z,4.88
2022-08-10T06:57:17.902Z,4.35
2022-08-10T06:59:59.856Z,3.42
2022-08-10T07:02:46.779Z,6.65
2022-08-10T07:05:25.670Z,5.60
2022-08-10T07:08:06.380Z,7.95
2022-08-10T07:10:46.491Z,3.90
2022-08-10T07:14:15.798Z,7.38
2022-08-10T07:16:24.430Z,5.72
2022-08-10T07:19:02.326Z,4.50
2022-08-10T07:21:41.015Z,4.15
2022-08-10T07:24:20.245Z,5.32
2022-08-10T07:27:04.661Z,6.30
2022-08-10T07:29:53.233Z,8.18
2022-08-10T07:32:33.047Z,3.72
2022-08-10T07:35:10.397Z,6.57
2022-08-10T07:37:48.686Z,7.88
2022-08-10T07:40:26.859Z,6.60
2022-08-10T07:43:07.926Z,8.18
2022-08-10T07:45:45.376Z,7.50
2022-08-10T07:48:26.075Z,10.77
2022-08-10T07:51:05.922Z,7.03
2022-08-10T07:53:48.234Z,5.80
2022-08-10T07:56:48.545Z,7.68
2022-08-10T07:59:37.511Z,4.60
2022-08-10T08:02:17.907Z,8.45
2022-08-10T08:04:54.883Z,5.78
2022-08-10T08:07:32.457Z,11.32
2022-08-10T08:10:09.741Z,8.88
2022-08-10T08:12:47.931Z,7.53
2022-08-10T08:16:18.487Z,9.32
2022-08-10T08:18:28.191Z,13.63
2022-08-10T08:21:16.083Z,8.18
2022-08-10T08:24:31.548Z,9.23
2022-08-10T08:27:03.441Z,9.93
2022-08-10T08:29:42.291Z,9.52
2022-08-10T08:32:24.432Z,10.82
2022-08-10T08:35:02.370Z,10.05
2022-08-10T08:38:31.279Z,10.13
2022-08-10T08:40:40.196Z,9.50
2022-08-10T08:43:39.556Z,12.35
2022-08-10T08:46:34.885Z,10.93
2022-08-10T08:50:08.360Z,11.70
2022-08-10T08:52:49.692Z,11.70
2022-08-10T08:56:03.031Z,12.18
2022-08-10T08:59:04.061Z,7.20
2022-08-10T09:02:00.147Z,11.20
2022-08-10T09:05:01.809Z,11.88
2022-08-10T09:08:15.332Z,9.35
2022-08-10T09:11:02.227Z,10.93
2022-08-10T09:13:47.401Z,13.80
2022-08-10T09:16:32.120Z,11.45
2022-08-10T09:19:19.754Z,12.93
2022-08-10T09:22:22.621Z,15.00
2022-08-10T09:25:05.166Z,12.65
2022-08-10T09:27:49.257Z,10.65
2022-08-10T09:30:38.155Z,11.88
2022-08-10T09:36:26.172Z,11.98
2022-08-10T09:36:32.989Z,11.68
2022-08-10T09:40:46.245Z,10.25
2022-08-10T09:42:31.642Z,10.63
2022-08-10T09:45:17.607Z,12.77
2022-08-10T09:48:08.056Z,14.27
2022-08-10T09:54:01.888Z,9.07
2022-08-10T09:56:52.571Z,10.88
2022-08-10T10:00:00.292Z,11.02
2022-08-10T10:02:41.193Z,11.70
2022-08-10T10:05:51.057Z,9.68
2022-08-10T10:08:42.650Z,13.20
2022-08-10T10:11:30.318Z,11.93
2022-08-10T10:14:21.806Z,11.60
2022-08-10T10:17:13.056Z,13.25
2022-08-10T10:20:07.655Z,13.77
2022-08-10T10:23:04.529Z,15.63
2022-08-10T10:25:50.653Z,14.65
2022-08-10T10:29:19.619Z,12.50
2022-08-10T10:31:48.993Z,10.57
2022-08-10T10:34:32.679Z,12.45
2022-08-10T10:37:10.578Z,11.98
2022-08-10T10:39:50.090Z,12.27
2022-08-10T10:42:45.089Z,10.77
2022-08-10T10:45:27.405Z,9.70
2022-08-10T10:48:23.847Z,10.15
2022-08-10T10:51:13.400Z,12.00
2022-08-10T10:53:57.593Z,13.13
2022-08-10T10:56:45.381Z,9.27
2022-08-10T10:59:56.518Z,9.20
2022-08-10T11:02:43.462Z,10.32
2022-08-10T11:05:29.006Z,12.18
2022-08-10T11:08:08.793Z,14.32
2022-08-10T11:10:56.361Z,11.52
2022-08-10T11:14:25.775Z,10.32
2022-08-10T11:16:55.816Z,10.75
2022-08-10T11:20:03.031Z,11.65
2022-08-10T11:22:47.039Z,17.88
2022-08-10T11:25:33.273Z,12.60
2022-08-10T11:28:22.673Z,15.52
2022-08-10T11:31:06.475Z,12.45
2022-08-10T11:36:52.494Z,13.32
2022-08-10T11:39:54.471Z,11.82
2022-08-10T11:42:38.854Z,15.07
2022-08-10T11:45:21.397Z,11.75
2022-08-10T11:48:03.440Z,10.38
2022-08-10T11:50:44.531Z,13.40
2022-08-10T11:53:26.247Z,13.15
2022-08-10T11:56:16.208Z,13.65
2022-08-10T11:59:16.959Z,16.15
2022-08-10T12:01:55.254Z,15.00
2022-08-10T12:04:34.192Z,11.55
2022-08-10T12:10:01.774Z,14.98
2022-08-10T12:10:13.845Z,10.35
2022-08-10T12:12:59.207Z,13.95
2022-08-10T12:15:42.678Z,12.88
2022-08-10T12:18:25.683Z,12.93
2022-08-10T12:21:06.441Z,11.45
2022-08-10T12:24:02.459Z,12.60
2022-08-10T12:26:48.529Z,13.98
2022-08-10T12:29:37.032Z,15.75
2022-08-10T12:32:25.420Z,12.30
2022-08-10T12:35:12.369Z,14.80
2022-08-10T12:38:10.206Z,11.10
2022-08-10T12:40:50.426Z,12.52
2022-08-10T12:44:07.257Z,11.82
2022-08-10T12:46:44.403Z,11.45
2022-08-10T12:49:31.110Z,13.13
2022-08-10T12:52:16.830Z,14.07
2022-08-10T12:54:57.839Z,10.50
2022-08-10T12:57:39.982Z,13.35
2022-08-10T13:00:17.815Z,11.68
2022-08-10T13:02:59.700Z,12.52
2022-08-10T13:06:02.573Z,14.27
2022-08-10T13:08:54.817Z,10.02
2022-08-10T13:12:35.814Z,10.90
2022-08-10T13:14:37.571Z,11.70
2022-08-10T13:17:21.080Z,10.18
2022-08-10T13:20:12.964Z,10.32
2022-08-10T13:22:54.901Z,10.40
2022-08-10T13:25:39.831Z,10.48
2022-08-10T13:28:37.235Z,10.80
2022-08-10T13:31:20.299Z,10.48
2022-08-10T13:34:40.508Z,10.45
2022-08-10T13:37:01.557Z,9.70
2022-08-10T13:39:59.406Z,10.65
2022-08-10T13:42:42.692Z,9.52
2022-08-10T13:45:23.238Z,10.60
2022-08-10T13:48:13.066Z,10.40
2022-08-10T13:50:53.534Z,10.20
2022-08-10T13:53:36.222Z,11.88
2022-08-10T13:56:14.885Z,9.60
2022-08-10T13:58:55.377Z,10.32
2022-08-10T14:01:35.394Z,9.32
2022-08-10T14:04:16.661Z,12.57
2022-08-10T14:06:58.395Z,10.50
2022-08-10T14:09:40.229Z,11.70
2022-08-10T14:12:18.890Z,15.10
2022-08-10T14:15:09.509Z,10.50
2022-08-10T14:17:48.945Z,9.07
2022-08-10T14:20:28.077Z,10.63
2022-08-10T14:23:08.976Z,13.32
2022-08-10T14:25:56.838Z,13.10
2022-08-10T14:28:44.436Z,15.82
2022-08-10T14:31:24.459Z,11.55
2022-08-10T14:34:05.378Z,10.65
2022-08-10T14:36:48.532Z,11.13
2022-08-10T14:39:33.761Z,10.23
2022-08-10T14:42:26.997Z,11.52
2022-08-10T14:45:09.420Z,10.65
2022-08-10T14:47:59.430Z,9.43
2022-08-10T14:50:38.888Z,11.85
2022-08-10T14:53:36.850Z,14.25
2022-08-10T14:56:13.916Z,10.98
2022-08-10T14:59:06.779Z,10.23
2022-08-10T15:02:00.835Z,10.75
2022-08-10T15:04:44.860Z,13.27
2022-08-10T15:07:26.888Z,12.07
2022-08-10T15:10:04.852Z,11.73
2022-08-10T15:12:44.781Z,9.18
2022-08-10T15:15:29.058Z,9.82
2022-08-10T15:18:10.248Z,15.05
2022-08-10T15:20:51.718Z,14.15
2022-08-10T15:23:32.969Z,21.20
2022-08-10T15:26:14.884Z,18.15
2022-08-10T15:29:04.099Z,22.30
2022-08-10T15:32:12.822Z,27.88
2022-08-10T15:35:20.240Z,28.92
2022-08-10T15:38:09.491Z,35.35
2022-08-10T15:40:53.627Z,34.50
2022-08-10T15:43:36.801Z,36.55
2022-08-10T15:46:19.051Z,39.33
2022-08-10T15:49:04.209Z,34.53
2022-08-10T15:51:54.025Z,32.95
2022-08-10T15:54:35.225Z,30.45
2022-08-10T15:57:18.015Z,27.02
2022-08-10T15:59:58.502Z,28.50
2022-08-10T16:02:48.778Z,27.30
2022-08-10T16:06:00.392Z,22.00
2022-08-10T16:08:34.566Z,18.83
2022-08-10T16:11:17.804Z,20.52
2022-08-10T16:14:01.106Z,17.55
2022-08-10T16:16:41.520Z,15.27
2022-08-10T16:19:24.137Z,13.20
2022-08-10T16:22:36.367Z,12.88
2022-08-10T16:25:17.430Z,13.27
2022-08-10T16:27:53.906Z,18.33
2022-08-10T16:30:31.506Z,17.90
2022-08-10T16:33:08.720Z,15.75
2022-08-10T16:35:50.405Z,14.20
2022-08-10T16:38:30.038Z,14.90
2022-08-10T16:41:07.144Z,13.23
2022-08-10T16:44:04.399Z,15.18
2022-08-10T16:46:44.962Z,12.70
2022-08-10T16:49:24.402Z,14.05
2022-08-10T16:52:02.118Z,14.63
2022-08-10T16:54:44.027Z,14.82
2022-08-10T16:57:27.126Z,14.25
2022-08-10T17:00:04.407Z,12.10
2022-08-10T17:02:44.735Z,12.48
2022-08-10T17:06:03.550Z,12.30
2022-08-10T17:08:23.893Z,14.85
2022-08-10T17:11:05.259Z,14.77
2022-08-10T17:13:42.707Z,12.15
2022-08-10T17:16:21.264Z,12.38
2022-08-10T17:19:00.080Z,14.68
2022-08-10T17:21:51.428Z,13.05
2022-08-10T17:24:33.357Z,10.77
2022-08-10T17:28:21.159Z,13.43
2022-08-10T17:30:15.792Z,15.85
2022-08-10T17:33:02.425Z,9.48
2022-08-10T17:35:44.021Z,10.32
2022-08-10T17:38:23.655Z,8.02
2022-08-10T17:41:06.131Z,9.70
2022-08-10T17:44:02.481Z,8.23
2022-08-10T17:46:42.364Z,8.80
2022-08-10T17:49:21.071Z,10.77
2022-08-10T17:52:00.243Z,9.93
2022-08-10T17:54:40.597Z,13.63
2022-08-10T17:57:22.798Z,12.88
2022-08-10T18:00:05.390Z,10.80
2022-08-10T18:02:45.034Z,13.32
2022-08-10T18:05:25.076Z,11.88
2022-08-10T18:08:02.658Z,12.02
2022-08-10T18:10:39.812Z,7.18
2022-08-10T18:13:21.291Z,7.45
2022-08-10T18:16:01.427Z,11.65
2022-08-10T18:18:40.315Z,10.23
2022-08-10T18:21:26.583Z,10.52
2022-08-10T18:24:12.865Z,10.73
2022-08-10T18:26:55.693Z,11.57
2022-08-10T18:29:35.066Z,10.73
2022-08-10T18:32:14.874Z,9.30
2022-08-10T18:34:55.642Z,9.30
2022-08-10T18:37:32.855Z,9.95
2022-08-10T18:40:11.491Z,10.23
2022-08-10T18:42:53.682Z,7.25
2022-08-10T18:45:33.340Z,11.38
2022-08-10T18:48:17.877Z,8.48
2022-08-10T18:50:57.159Z,10.85
2022-08-10T18:53:38.998Z,9.18
2022-08-10T18:56:31.396Z,7.85
2022-08-10T18:59:22.644Z,8.88
2022-08-10T19:02:18.213Z,9.00
2022-08-10T19:05:30.437Z,8.27
2022-08-10T19:08:36.630Z,8.05
2022-08-10T19:11:49.949Z,11.32
2022-08-10T19:14:33.094Z,9.10
2022-08-10T19:17:21.092Z,7.22
2022-08-10T19:20:26.534Z,8.88
2022-08-10T19:23:20.390Z,9.88
2022-08-10T19:26:41.264Z,8.10
2022-08-10T19:29:04.518Z,9.85
2022-08-10T19:31:50.477Z,8.60
2022-08-10T19:34:55.273Z,8.88
2022-08-10T19:37:39.675Z,7.35
2022-08-10T19:40:44.279Z,9.98
2022-08-10T19:43:59.273Z,9.63
2022-08-10T19:46:36.609Z,8.77
2022-08-10T19:49:22.251Z,10.00
2022-08-10T19:52:11.066Z,11.80
2022-08-10T19:55:01.492Z,9.15
2022-08-10T19:57:43.979Z,8.50
2022-08-10T20:00:26.974Z,8.98
2022-08-10T20:03:22.129Z,7.55
2022-08-10T20:06:18.472Z,8.75
2022-08-10T20:09:05.622Z,9.13
2022-08-10T20:12:01.086Z,10.35
2022-08-10T20:14:45.010Z,10.80
2022-08-10T20:17:30.243Z,8.82
2022-08-10T20:20:31.983Z,8.70
2022-08-10T20:23:20.417Z,7.65
2022-08-10T20:26:00.862Z,9.30
2022-08-10T20:28:48.364Z,10.85
2022-08-10T20:31:31.436Z,10.20
2022-08-10T20:34:14.805Z,7.93
2022-08-10T20:37:02.433Z,10.57
2022-08-10T20:39:51.034Z,8.77
2022-08-10T20:42:32.062Z,9.02
2022-08-10T20:45:17.119Z,7.20
2022-08-10T20:48:03.737Z,9.02
2022-08-10T20:50:48.419Z,11.55
2022-08-10T20:53:29.668Z,10.27
2022-08-10T20:56:14.379Z,7.13
2022-08-10T20:59:09.373Z,10.70
2022-08-10T21:02:10.945Z,8.85
2022-08-10T21:04:57.042Z,8.35
2022-08-10T21:08:03.139Z,11.73
2022-08-10T21:10:56.613Z,6.82
2022-08-10T21:14:03.984Z,10.48
2022-08-10T21:17:00.309Z,12.25
2022-08-10T21:20:07.584Z,10.70
2022-08-10T21:22:48.377Z,8.38
2022-08-10T21:25:29.716Z,9.93
2022-08-10T21:28:29.131Z,10.50
2022-08-10T21:31:29.671Z,10.40
2022-08-10T21:34:32.098Z,10.70
2022-08-10T21:37:14.885Z,10.07
2022-08-10T21:40:07.793Z,10.50
2022-08-10T21:43:44.640Z,8.40
2022-08-10T21:47:08.048Z,11.23
2022-08-10T21:50:17.812Z,11.80
2022-08-10T21:53:45.016Z,11.23
2022-08-10T21:56:42.452Z,10.25
2022-08-10T21:59:44.090Z,11.27
2022-08-10T22:02:50.393Z,12.50
2022-08-10T22:05:52.890Z,13.15
2022-08-10T22:08:51.293Z,15.95
2022-08-10T22:11:48.584Z,11.27
2022-08-10T22:14:47.779Z,13.40
2022-08-10T22:18:01.150Z,14.73
2022-08-10T22:20:57.276Z,12.60
2022-08-10T22:24:16.485Z,12.50
2022-08-10T22:27:47.069Z,11.27
2022-08-10T22:30:39.092Z,9.73
2022-08-10T22:33:46.443Z,11.50
2022-08-10T22:36:59.203Z,11.77
2022-08-10T22:40:11.701Z,11.90
2022-08-10T22:43:10.746Z,10.20
2022-08-10T22:46:10.740Z,11.15
2022-08-10T22:49:01.628Z,14.15
2022-08-10T22:51:46.398Z,15.30
2022-08-10T22:54:45.238Z,13.60
2022-08-10T22:57:38.591Z,9.70
2022-08-10T23:00:30.702Z,11.68
2022-08-10T23:03:16.681Z,9.00
2022-08-10T23:06:02.472Z,10.65
2022-08-10T23:08:47.189Z,9.10
2022-08-10T23:11:27.918Z,7.20
2022-08-10T23:14:08.774Z,11.52
2022-08-10T23:17:07.377Z,12.02
2022-08-10T23:19:50.827Z,8.18
2022-08-10T23:22:39.241Z,15.25
2022-08-10T23:25:21.730Z,10.90
2022-08-10T23:28:12.454Z,8.88
2022-08-10T23:30:51.564Z,9.00
2022-08-10T23:33:38.283Z,10.52
2022-08-10T23:36:33.904Z,11.48
2022-08-10T23:39:25.275Z,14.02
2022-08-10T23:42:10.192Z,10.98
2022-08-10T23:44:51.554Z,8.32
2022-08-10T23:47:30.009Z,9.90
2022-08-10T23:50:07.882Z,10.68
2022-08-10T23:52:46.402Z,7.65
2022-08-10T23:55:29.747Z,12.23
2022-08-10T23:58:33.084Z,10.85
